createdAt,value
2019-02-12T00:01:10.232Z,102850.70
2019-02-12T00:12:54.242Z,102873.59
2019-02-12T00:16:38.837Z,102883.38
2019-02-12T00:20:23.500Z,102890.16
2019-02-12T00:24:01.144Z,102888.82
2019-02-12T00:27:45.786Z,102888.41
2019-02-12T00:31:30.409Z,102884.88
2019-02-12T00:35:15.069Z,102891.53
2019-02-12T00:38:59.765Z,102895.68
2019-02-12T00:42:44.685Z,102898.21
2019-02-12T00:46:29.304Z,102897.94
2019-02-12T00:50:13.911Z,102904.59
2019-02-12T00:53:58.542Z,102898.48
2019-02-12T00:57:35.389Z,102912.06
2019-02-12T01:01:19.978Z,102907.69
2019-02-12T01:09:15.256Z,102907.72
2019-02-12T01:12:59.963Z,102912.24
2019-02-12T01:16:44.627Z,102905.58
2019-02-12T01:20:29.267Z,102912.62
2019-02-12T01:24:06.162Z,102901.48
2019-02-12T01:27:50.745Z,102898.07
2019-02-12T01:35:25.654Z,102902.55
2019-02-12T01:39:12.270Z,102896.75
2019-02-12T01:47:01.173Z,102909.19
2019-02-12T01:50:26.740Z,102910.05
2019-02-12T01:54:11.361Z,102911.86
2019-02-12T01:57:48.310Z,102913.16
2019-02-12T02:01:33.525Z,102913.67
2019-02-12T02:05:18.128Z,102915.81
2019-02-12T02:09:02.761Z,102915.77
2019-02-12T02:13:06.219Z,102911.78
2019-02-12T02:16:50.859Z,102917.92
2019-02-12T02:20:35.467Z,102920.97
2019-02-12T02:24:20.056Z,102927.59
2019-02-12T02:28:04.732Z,102923.19
2019-02-12T02:31:49.660Z,102928.03
2019-02-12T02:35:34.294Z,102917.27
2019-02-12T02:39:18.965Z,102918.02
2019-02-12T02:43:03.837Z,102917.91
2019-02-12T02:50:51.962Z,102920.67
2019-02-12T02:54:36.581Z,102928.16
2019-02-12T02:58:13.891Z,102931.22
2019-02-12T03:01:58.607Z,102936.97
2019-02-12T03:05:43.663Z,102940.07
2019-02-12T03:09:28.364Z,102945.16
2019-02-12T03:13:25.582Z,102939.69
2019-02-12T03:16:59.656Z,102938.31
2019-02-12T03:20:25.219Z,102937.56
2019-02-12T03:23:51.159Z,102941.13
2019-02-12T03:27:35.963Z,102936.61
2019-02-12T03:31:20.585Z,102941.16
2019-02-12T03:35:05.956Z,102941.54
2019-02-12T03:38:50.572Z,102941.58
2019-02-12T03:42:35.277Z,102938.59
2019-02-12T03:46:20.303Z,102944.75
2019-02-12T03:50:05.224Z,102948.71
2019-02-12T03:57:39.546Z,102956.30
2019-02-12T04:01:24.177Z,102955.41
2019-02-12T04:05:08.859Z,102958.08
2019-02-12T04:12:43.713Z,102951.91
2019-02-12T04:16:28.342Z,102959.05
2019-02-12T04:20:12.928Z,102960.83
2019-02-12T04:23:51.216Z,102958.63
2019-02-12T04:27:36.002Z,102963.52
2019-02-12T04:31:01.587Z,102968.39
2019-02-12T04:34:46.214Z,102974.59
2019-02-12T04:38:30.814Z,102971.50
2019-02-12T04:42:15.453Z,102973.70
2019-02-12T04:53:54.282Z,102968.82
2019-02-12T04:57:38.873Z,102975.48
2019-02-12T05:01:23.878Z,102968.38
2019-02-12T05:05:09.680Z,102965.70
2019-02-12T05:09:17.386Z,102963.07
2019-02-12T05:13:02.049Z,102970.16
2019-02-12T05:16:46.694Z,102967.05
2019-02-12T05:20:31.279Z,102971.04
2019-02-12T05:24:08.433Z,102971.92
2019-02-12T05:27:53.147Z,102975.00
2019-02-12T05:31:37.782Z,102974.16
2019-02-12T05:35:22.669Z,102978.14
2019-02-12T05:42:57.692Z,102979.03
2019-02-12T05:46:42.370Z,102975.02
2019-02-12T05:50:27.038Z,102973.72
2019-02-12T05:54:11.936Z,102974.61
2019-02-12T05:57:56.581Z,102973.28
2019-02-12T06:01:35.550Z,102974.61
2019-02-12T06:05:39.218Z,102974.12
2019-02-12T06:09:24.209Z,102977.72
2019-02-12T06:13:08.856Z,102976.80
2019-02-12T06:16:53.552Z,102971.06
2019-02-12T06:20:38.399Z,102979.05
2019-02-12T06:24:15.612Z,102985.27
2019-02-12T06:28:00.305Z,102986.14
2019-02-12T06:31:44.958Z,102984.36
2019-02-12T06:35:29.614Z,102987.47
2019-02-12T06:39:38.924Z,102988.80
2019-02-12T06:43:23.548Z,102985.22
2019-02-12T06:47:08.177Z,102994.57
2019-02-12T06:50:52.813Z,102995.93
2019-02-12T06:54:37.427Z,102997.27
2019-02-12T06:58:22.030Z,102995.92
2019-02-12T07:02:44.839Z,103006.13
2019-02-12T07:07:07.644Z,103021.23
2019-02-12T07:10:52.813Z,103017.23
2019-02-12T07:15:15.860Z,103018.55
2019-02-12T07:19:38.907Z,103033.21
2019-02-12T07:23:21.598Z,103035.45
2019-02-12T07:27:29.883Z,103045.19
2019-02-12T07:31:50.057Z,103048.75
2019-02-12T07:36:12.821Z,103059.84
2019-02-12T07:40:35.590Z,103078.48
2019-02-12T07:44:58.599Z,103078.91
2019-02-12T07:49:21.466Z,103091.86
2019-02-12T07:53:31.603Z,103088.28
2019-02-12T07:57:55.751Z,103106.48
2019-02-12T08:02:02.494Z,103108.65
2019-02-12T08:06:12.514Z,103115.75
2019-02-12T08:10:28.371Z,103119.75
2019-02-12T08:14:51.135Z,103126.84
2019-02-12T08:19:13.904Z,103134.45
2019-02-12T08:23:41.221Z,103148.60
2019-02-12T08:28:01.157Z,103149.07
2019-02-12T08:32:09.641Z,103155.27
2019-02-12T08:36:32.430Z,103157.50
2019-02-12T08:40:55.217Z,103156.16
2019-02-12T08:45:17.963Z,103154.73
2019-02-12T08:49:33.719Z,103155.70
2019-02-12T08:53:56.455Z,103165.05
2019-02-12T08:58:03.597Z,103166.05
2019-02-12T09:01:46.387Z,103168.44
2019-02-12T09:05:53.375Z,103163.44
2019-02-12T09:10:16.157Z,103155.06
2019-02-12T09:14:38.926Z,103159.20
2019-02-12T09:18:50.332Z,103165.47
2019-02-12T09:23:13.160Z,103171.02
2019-02-12T09:27:21.724Z,103168.46
2019-02-12T09:31:35.805Z,103161.62
2019-02-12T09:35:58.564Z,103165.17
2019-02-12T09:40:18.612Z,103166.33
2019-02-12T09:44:35.179Z,103167.36
2019-02-12T09:48:58.194Z,103176.39
2019-02-12T09:53:20.963Z,103176.34
2019-02-12T09:57:43.785Z,103186.74
2019-02-12T10:01:29.117Z,103185.78
2019-02-12T10:05:51.990Z,103181.55
2019-02-12T10:10:14.740Z,103187.70
2019-02-12T10:14:37.527Z,103177.84
2019-02-12T10:18:54.745Z,103187.27
2019-02-12T10:27:10.567Z,103191.26
2019-02-12T10:31:16.730Z,103197.27
2019-02-12T10:35:20.217Z,103213.21
2019-02-12T10:39:25.450Z,103206.23
2019-02-12T10:43:10.426Z,103204.97
2019-02-12T10:46:55.338Z,103209.55
2019-02-12T10:50:39.989Z,103204.26
2019-02-12T10:54:27.975Z,103203.72
2019-02-12T10:58:10.953Z,103201.33
2019-02-12T11:01:48.212Z,103197.27
2019-02-12T11:05:32.811Z,103200.27
2019-02-12T11:09:17.715Z,103200.25
2019-02-12T11:13:02.353Z,103201.11
2019-02-12T11:16:46.991Z,103200.71
2019-02-12T11:20:31.968Z,103200.42
2019-02-12T11:24:08.879Z,103186.36
2019-02-12T11:28:12.552Z,103185.63
2019-02-12T11:31:57.430Z,103189.26
2019-02-12T11:35:42.048Z,103187.56
2019-02-12T11:39:26.654Z,103191.05
2019-02-12T11:43:11.283Z,103194.72
2019-02-12T11:46:56.228Z,103190.67
2019-02-12T11:50:41.198Z,103195.53
2019-02-12T11:54:25.822Z,103189.20
2019-02-12T11:58:10.759Z,103193.63
2019-02-12T12:01:55.357Z,103190.91
2019-02-12T12:05:39.963Z,103191.30
2019-02-12T12:09:24.607Z,103187.00
2019-02-12T12:13:09.618Z,103188.06
2019-02-12T12:16:54.211Z,103185.02
2019-02-12T12:20:38.874Z,103180.59
2019-02-12T12:24:15.959Z,103176.96
2019-02-12T12:28:00.557Z,103171.04
2019-02-12T12:31:45.199Z,103169.09
2019-02-12T12:35:29.826Z,103170.81
2019-02-12T12:39:14.475Z,103159.55
2019-02-12T12:42:59.081Z,103159.09
2019-02-12T12:46:43.678Z,103151.08
2019-02-12T12:50:28.317Z,103153.53
2019-02-12T12:54:12.931Z,103158.56
2019-02-12T12:57:57.567Z,103167.81
2019-02-12T13:01:34.762Z,103150.60
2019-02-12T13:05:19.366Z,103160.39
2019-02-12T13:12:55.359Z,103169.73
2019-02-12T13:16:40.263Z,103167.73
2019-02-12T13:20:24.951Z,103170.23
2019-02-12T13:24:09.573Z,103160.87
2019-02-12T13:27:54.562Z,103154.47
2019-02-12T13:31:39.263Z,103158.56
2019-02-12T13:35:23.857Z,103159.23
2019-02-12T13:39:08.481Z,103157.25
2019-02-12T13:42:53.899Z,103155.72
2019-02-12T13:46:38.903Z,103161.27
2019-02-12T13:50:23.518Z,103171.65
2019-02-12T13:54:08.173Z,103167.89
2019-02-12T13:57:52.786Z,103160.16
2019-02-12T14:01:30.021Z,103160.38
2019-02-12T14:05:16.257Z,103164.65
2019-02-12T14:09:00.815Z,103157.70
2019-02-12T14:12:45.448Z,103167.45
2019-02-12T14:16:30.062Z,103162.56
2019-02-12T14:24:04.872Z,103161.11
2019-02-12T14:27:42.463Z,103163.04
2019-02-12T14:31:27.439Z,103157.70
2019-02-12T14:35:12.382Z,103162.85
2019-02-12T14:38:57.053Z,103167.82
2019-02-12T14:42:41.704Z,103165.68
2019-02-12T14:46:26.326Z,103166.63
2019-02-12T14:50:12.087Z,103156.80
2019-02-12T14:53:56.814Z,103160.79
2019-02-12T14:57:41.395Z,103158.79
2019-02-12T15:01:18.212Z,103162.85
2019-02-12T15:05:03.099Z,103170.84
2019-02-12T15:08:47.823Z,103174.27
2019-02-12T15:12:32.441Z,103164.93
2019-02-12T15:16:17.048Z,103173.06
2019-02-12T15:20:01.685Z,103155.20
2019-02-12T15:23:46.326Z,103160.94
2019-02-12T15:27:23.314Z,103159.89
2019-02-12T15:31:07.964Z,103155.34
2019-02-12T15:34:53.917Z,103155.08
2019-02-12T15:38:38.539Z,103151.86
2019-02-12T15:42:23.226Z,103155.91
2019-02-12T15:46:07.927Z,103144.45
2019-02-12T15:49:53.192Z,103146.08
2019-02-12T15:53:38.097Z,103144.67
2019-02-12T15:57:24.761Z,103144.25
2019-02-12T16:01:02.341Z,103153.78
2019-02-12T16:04:48.670Z,103157.63
2019-02-12T16:16:16.088Z,103144.93
2019-02-12T16:20:00.720Z,103162.59
2019-02-12T16:23:45.329Z,103161.55
2019-02-12T16:27:30.455Z,103164.83
2019-02-12T16:31:15.089Z,103172.42
2019-02-12T16:34:59.697Z,103179.14
2019-02-12T16:38:44.302Z,103177.81
2019-02-12T16:42:29.218Z,103182.97
2019-02-12T16:46:18.354Z,103176.49
2019-02-12T16:50:42.546Z,103182.51
2019-02-12T16:54:08.282Z,103182.95
2019-02-12T16:57:53.378Z,103186.91
2019-02-12T17:01:32.740Z,103190.84
2019-02-12T17:05:17.686Z,103197.52
2019-02-12T17:09:02.309Z,103204.67
2019-02-12T17:12:47.864Z,103201.85
2019-02-12T17:16:32.494Z,103197.39
2019-02-12T17:20:37.160Z,103199.13
2019-02-12T17:24:21.789Z,103205.04
2019-02-12T17:27:59.510Z,103208.59
2019-02-12T17:31:44.129Z,103215.50
2019-02-12T17:35:29.199Z,103221.42
2019-02-12T17:39:13.887Z,103227.38
2019-02-12T17:42:58.523Z,103225.03
2019-02-12T17:46:43.182Z,103227.20
2019-02-12T17:50:27.821Z,103224.51
2019-02-12T17:54:12.511Z,103223.84
2019-02-12T17:57:57.119Z,103230.98
2019-02-12T18:01:34.305Z,103231.50
2019-02-12T18:05:18.978Z,103235.59
2019-02-12T18:09:04.001Z,103228.27
2019-02-12T18:12:48.607Z,103233.35
2019-02-12T18:16:33.216Z,103227.55
2019-02-12T18:20:26.147Z,103221.67
2019-02-12T18:24:07.402Z,103226.72
2019-02-12T18:27:52.786Z,103228.55
2019-02-12T18:31:38.716Z,103233.60
2019-02-12T18:35:30.599Z,103225.30
2019-02-12T18:43:18.904Z,103239.79
2019-02-12T18:47:03.562Z,103230.41
2019-02-12T18:50:48.302Z,103237.56
2019-02-12T18:54:33.070Z,103231.13
2019-02-12T18:58:17.694Z,103226.59
2019-02-12T19:01:56.132Z,103223.16
2019-02-12T19:05:40.764Z,103222.12
2019-02-12T19:16:54.641Z,103211.45
2019-02-12T19:20:40.006Z,103205.26
2019-02-12T19:28:29.899Z,103219.23
2019-02-12T19:32:14.539Z,103218.79
2019-02-12T19:35:40.510Z,103222.72
2019-02-12T19:39:06.911Z,103220.06
2019-02-12T19:42:32.486Z,103226.69
2019-02-12T19:45:58.682Z,103232.06
2019-02-12T19:49:24.989Z,103235.56
2019-02-12T19:52:50.730Z,103235.44
2019-02-12T19:56:20.444Z,103239.36
2019-02-12T19:59:46.416Z,103236.53
2019-02-12T20:03:12.546Z,103239.91
2019-02-12T20:06:39.412Z,103251.08
2019-02-12T20:10:05.777Z,103252.98
2019-02-12T20:13:40.724Z,103249.55
2019-02-12T20:17:08.349Z,103244.59
2019-02-12T20:20:36.572Z,103244.59
2019-02-12T20:24:06.179Z,103244.08
2019-02-12T20:27:36.254Z,103237.10
2019-02-12T20:31:06.090Z,103238.14
2019-02-12T20:34:38.614Z,103248.16
2019-02-12T20:38:06.880Z,103243.92
2019-02-12T20:41:32.589Z,103240.80
2019-02-12T20:44:58.514Z,103247.64
2019-02-12T20:48:27.826Z,103240.45
2019-02-12T20:51:57.366Z,103238.59
2019-02-12T20:55:25.642Z,103249.20
2019-02-12T20:58:51.723Z,103258.50
2019-02-12T21:02:18.337Z,103249.96
2019-02-12T21:05:50.040Z,103255.19
2019-02-12T21:09:16.600Z,103245.41
2019-02-12T21:12:42.299Z,103235.91
2019-02-12T21:16:08.692Z,103244.31
2019-02-12T21:19:34.723Z,103239.81
2019-02-12T21:23:01.136Z,103250.82
2019-02-12T21:26:26.902Z,103258.98
2019-02-12T21:29:52.550Z,103250.86
2019-02-12T21:33:18.757Z,103251.34
2019-02-12T21:36:45.088Z,103264.36
2019-02-12T21:40:14.963Z,103262.17
2019-02-12T21:43:40.543Z,103264.39
2019-02-12T21:47:08.681Z,103262.50
2019-02-12T21:50:34.251Z,103262.44
2019-02-12T21:53:59.890Z,103270.21
2019-02-12T21:57:31.805Z,103284.47
2019-02-12T22:00:55.513Z,103283.56
2019-02-12T22:04:21.267Z,103292.28
2019-02-12T22:07:46.976Z,103283.39
2019-02-12T22:11:13.089Z,103287.59
2019-02-12T22:14:38.891Z,103296.26
2019-02-12T22:18:04.663Z,103306.80
2019-02-12T22:21:30.300Z,103303.95
2019-02-12T22:24:56.045Z,103309.03
2019-02-12T22:28:21.643Z,103293.33
2019-02-12T22:31:47.586Z,103300.38
2019-02-12T22:35:14.626Z,103316.81
2019-02-12T22:38:40.485Z,103309.80
2019-02-12T22:42:06.169Z,103293.68
2019-02-12T22:45:31.787Z,103291.37
2019-02-12T22:48:57.428Z,103289.27
2019-02-12T22:52:25.448Z,103299.58
2019-02-12T22:55:51.088Z,103299.94
2019-02-12T22:59:16.738Z,103301.41
2019-02-12T23:02:42.646Z,103300.86
2019-02-12T23:06:08.717Z,103316.21
2019-02-12T23:09:34.347Z,103307.83
2019-02-12T23:13:00.011Z,103327.01
2019-02-12T23:16:25.686Z,103327.91
2019-02-12T23:19:51.645Z,103324.36
2019-02-12T23:23:17.760Z,103319.04
2019-02-12T23:26:43.336Z,103321.15
2019-02-12T23:30:09.495Z,103312.81
2019-02-12T23:33:35.160Z,103320.97
2019-02-12T23:37:00.826Z,103324.45
2019-02-12T23:40:26.455Z,103316.38
2019-02-12T23:43:52.066Z,103336.03
2019-02-12T23:47:17.821Z,103335.16
2019-02-12T23:50:43.479Z,103340.99
2019-02-12T23:54:09.108Z,103334.70
2019-02-12T23:57:35.143Z,103333.53
